createdAt,value
2022-07-31T00:00:12.987Z,16.94
2022-07-31T00:02:39.630Z,16.85
2022-07-31T00:05:06.879Z,16.79
2022-07-31T00:07:33.606Z,16.87
2022-07-31T00:10:00.379Z,16.83
2022-07-31T00:12:26.961Z,16.87
2022-07-31T00:14:53.649Z,16.74
2022-07-31T00:17:20.460Z,16.75
2022-07-31T00:19:47.293Z,16.78
2022-07-31T00:22:13.897Z,16.77
2022-07-31T00:24:40.912Z,16.76
2022-07-31T00:27:08.074Z,16.76
2022-07-31T00:29:34.684Z,16.78
2022-07-31T00:32:01.302Z,16.86
2022-07-31T00:34:28.000Z,16.88
2022-07-31T00:36:54.605Z,16.95
2022-07-31T00:39:21.220Z,16.94
2022-07-31T00:41:47.937Z,16.96
2022-07-31T00:44:14.521Z,16.88
2022-07-31T00:46:42.279Z,16.87
2022-07-31T00:49:12.951Z,16.92
2022-07-31T00:51:40.337Z,16.93
2022-07-31T00:54:08.552Z,16.86
2022-07-31T00:56:35.741Z,16.90
2022-07-31T00:59:02.519Z,16.84
2022-07-31T01:01:29.494Z,16.86
2022-07-31T01:03:57.378Z,16.90
2022-07-31T01:06:24.646Z,16.79
2022-07-31T01:08:52.624Z,16.75
2022-07-31T01:12:24.490Z,16.74
2022-07-31T01:14:54.970Z,16.85
2022-07-31T01:17:23.812Z,16.86
2022-07-31T01:19:52.618Z,16.78
2022-07-31T01:22:46.733Z,16.81
2022-07-31T01:25:34.332Z,16.86
2022-07-31T01:28:20.408Z,16.78
2022-07-31T01:31:04.985Z,16.76
2022-07-31T01:33:46.891Z,16.82
2022-07-31T01:36:17.085Z,16.81
2022-07-31T01:38:48.323Z,16.82
2022-07-31T01:41:17.184Z,16.84
2022-07-31T01:43:48.328Z,16.76
2022-07-31T01:46:17.709Z,16.78
2022-07-31T01:48:45.226Z,16.80
2022-07-31T01:51:13.052Z,16.87
2022-07-31T01:53:41.224Z,16.86
2022-07-31T01:56:09.098Z,16.91
2022-07-31T01:58:38.371Z,16.94
2022-07-31T02:01:09.109Z,16.86
2022-07-31T02:03:43.651Z,17.01
2022-07-31T02:06:13.735Z,16.85
2022-07-31T02:08:41.481Z,16.77
2022-07-31T02:11:08.777Z,16.71
2022-07-31T02:13:36.364Z,16.80
2022-07-31T02:16:04.896Z,16.76
2022-07-31T02:18:33.148Z,16.88
2022-07-31T02:21:01.889Z,16.93
2022-07-31T02:23:28.721Z,16.92
2022-07-31T02:25:55.757Z,16.91
2022-07-31T02:28:23.899Z,16.83
2022-07-31T02:30:51.993Z,16.88
2022-07-31T02:33:21.745Z,16.88
2022-07-31T02:35:50.280Z,16.89
2022-07-31T02:38:23.506Z,16.82
2022-07-31T02:40:51.803Z,16.82
2022-07-31T02:43:19.900Z,16.84
2022-07-31T02:45:47.443Z,16.87
2022-07-31T02:48:14.530Z,16.92
2022-07-31T02:50:42.029Z,16.89
2022-07-31T02:53:09.031Z,16.89
2022-07-31T02:55:36.976Z,16.78
2022-07-31T02:58:06.696Z,16.78
2022-07-31T03:00:33.684Z,16.76
2022-07-31T03:03:01.181Z,16.75
2022-07-31T03:05:28.433Z,16.76
2022-07-31T03:07:55.029Z,16.83
2022-07-31T03:10:22.695Z,16.80
2022-07-31T03:12:52.041Z,16.75
2022-07-31T03:15:20.410Z,16.75
2022-07-31T03:17:48.322Z,16.82
2022-07-31T03:20:16.403Z,16.64
2022-07-31T03:22:43.793Z,16.64
2022-07-31T03:25:11.165Z,16.75
2022-07-31T03:27:55.644Z,16.80
2022-07-31T03:30:25.515Z,16.76
2022-07-31T03:32:55.767Z,16.73
2022-07-31T03:35:24.303Z,16.73
2022-07-31T03:37:51.694Z,16.75
2022-07-31T03:40:18.815Z,16.78
2022-07-31T03:42:47.007Z,16.73
2022-07-31T03:45:13.929Z,16.68
2022-07-31T03:47:41.049Z,16.65
2022-07-31T03:50:09.908Z,16.73
2022-07-31T03:52:37.860Z,16.79
2022-07-31T03:55:05.047Z,16.73
2022-07-31T03:57:34.185Z,16.73
2022-07-31T04:00:03.086Z,16.73
2022-07-31T04:02:31.693Z,16.69
2022-07-31T04:04:59.746Z,16.73
2022-07-31T04:07:26.528Z,16.71
2022-07-31T04:09:54.767Z,16.74
2022-07-31T04:12:23.278Z,16.73
2022-07-31T04:14:51.115Z,16.74
2022-07-31T04:17:17.865Z,16.77
2022-07-31T04:19:45.322Z,16.80
2022-07-31T04:22:12.123Z,16.77
2022-07-31T04:24:40.827Z,16.73
2022-07-31T04:27:12.557Z,16.68
2022-07-31T04:29:39.971Z,16.76
2022-07-31T04:32:07.214Z,16.79
2022-07-31T04:34:35.028Z,16.80
2022-07-31T04:37:01.976Z,16.85
2022-07-31T04:39:28.959Z,16.84
2022-07-31T04:41:57.817Z,16.87
2022-07-31T04:44:24.662Z,16.82
2022-07-31T04:46:52.026Z,16.82
2022-07-31T04:49:19.247Z,16.90
2022-07-31T04:51:46.365Z,16.88
2022-07-31T04:54:14.180Z,16.88
2022-07-31T04:56:44.667Z,16.88
2022-07-31T04:59:13.645Z,16.81
2022-07-31T05:01:43.584Z,16.83
2022-07-31T05:04:14.217Z,17.02
2022-07-31T05:06:49.853Z,17.01
2022-07-31T05:09:19.644Z,16.96
2022-07-31T05:11:52.065Z,16.95
2022-07-31T05:14:21.085Z,17.04
2022-07-31T05:16:48.578Z,17.04
2022-07-31T05:19:16.055Z,17.06
2022-07-31T05:21:53.407Z,17.11
2022-07-31T05:24:33.229Z,17.10
2022-07-31T05:27:03.560Z,17.17
2022-07-31T05:29:31.470Z,17.25
2022-07-31T05:32:00.563Z,17.24
2022-07-31T05:34:29.910Z,17.28
2022-07-31T05:36:59.539Z,17.33
2022-07-31T05:39:26.976Z,17.43
2022-07-31T05:41:54.810Z,17.49
2022-07-31T05:44:22.227Z,17.49
2022-07-31T05:49:16.926Z,17.67
2022-07-31T05:51:45.967Z,17.77
2022-07-31T05:54:14.538Z,17.81
2022-07-31T05:56:42.314Z,17.99
2022-07-31T05:59:10.110Z,18.03
2022-07-31T06:01:37.973Z,18.09
2022-07-31T06:04:06.449Z,18.20
2022-07-31T06:06:33.678Z,18.33
2022-07-31T06:09:04.406Z,18.37
2022-07-31T06:11:32.395Z,18.30
2022-07-31T06:13:59.729Z,18.30
2022-07-31T06:16:26.789Z,18.30
2022-07-31T06:18:54.226Z,18.27
2022-07-31T06:23:48.263Z,18.51
2022-07-31T06:26:15.267Z,18.68
2022-07-31T06:28:48.870Z,18.77
2022-07-31T06:31:18.611Z,18.81
2022-07-31T06:33:48.229Z,18.98
2022-07-31T06:36:17.613Z,18.64
2022-07-31T06:38:46.319Z,18.73
2022-07-31T06:41:35.551Z,18.55
2022-07-31T06:44:06.010Z,18.81
2022-07-31T06:46:33.793Z,19.00
2022-07-31T06:49:06.880Z,19.18
2022-07-31T06:51:37.702Z,19.13
2022-07-31T06:54:09.857Z,19.26
2022-07-31T06:56:40.349Z,19.51
2022-07-31T06:59:08.320Z,19.45
2022-07-31T07:01:36.541Z,19.47
2022-07-31T07:04:04.850Z,19.34
2022-07-31T07:06:36.066Z,19.57
2022-07-31T07:09:03.672Z,19.78
2022-07-31T07:11:33.222Z,19.93
2022-07-31T07:14:00.848Z,19.89
2022-07-31T07:16:29.752Z,19.94
2022-07-31T07:18:57.653Z,19.96
2022-07-31T07:21:32.355Z,20.03
2022-07-31T07:24:03.089Z,20.10
2022-07-31T07:26:31.630Z,20.20
2022-07-31T07:28:59.851Z,20.08
2022-07-31T07:31:27.829Z,20.24
2022-07-31T07:33:56.635Z,20.32
2022-07-31T07:36:30.063Z,20.50
2022-07-31T07:38:58.398Z,20.68
2022-07-31T07:41:26.267Z,20.81
2022-07-31T07:43:54.037Z,20.84
2022-07-31T07:46:26.088Z,20.92
2022-07-31T07:48:53.277Z,20.86
2022-07-31T07:51:23.673Z,20.95
2022-07-31T07:53:55.078Z,20.80
2022-07-31T07:56:25.114Z,20.83
2022-07-31T07:58:54.474Z,20.87
2022-07-31T08:01:21.696Z,21.11
2022-07-31T08:03:52.060Z,21.21
2022-07-31T08:06:21.160Z,21.34
2022-07-31T08:08:48.431Z,21.41
2022-07-31T08:11:17.022Z,21.53
2022-07-31T08:13:49.538Z,21.60
2022-07-31T08:16:17.392Z,21.80
2022-07-31T08:18:46.797Z,21.94
2022-07-31T08:21:14.747Z,22.07
2022-07-31T08:23:41.921Z,22.14
2022-07-31T08:26:09.376Z,22.23
2022-07-31T08:28:37.929Z,22.44
2022-07-31T08:31:08.343Z,22.63
2022-07-31T08:33:35.138Z,22.78
2022-07-31T08:36:01.916Z,22.78
2022-07-31T08:38:29.381Z,22.86
2022-07-31T08:40:56.284Z,22.84
2022-07-31T08:44:03.250Z,22.77
2022-07-31T08:46:11.037Z,22.86
2022-07-31T08:48:40.664Z,23.02
2022-07-31T08:51:08.006Z,23.04
2022-07-31T08:53:37.856Z,23.39
2022-07-31T08:56:06.668Z,23.46
2022-07-31T08:58:38.663Z,23.71
2022-07-31T09:01:06.369Z,23.77
2022-07-31T09:03:34.993Z,23.83
2022-07-31T09:06:01.960Z,23.95
2022-07-31T09:08:33.445Z,24.03
2022-07-31T09:11:14.897Z,24.25
2022-07-31T09:14:03.344Z,24.39
2022-07-31T09:16:31.421Z,24.46
2022-07-31T09:19:51.655Z,24.67
2022-07-31T09:21:53.373Z,24.60
2022-07-31T09:24:39.665Z,24.68
2022-07-31T09:27:10.544Z,24.68
2022-07-31T09:29:44.376Z,24.62
2022-07-31T09:32:19.015Z,24.65
2022-07-31T09:34:47.961Z,24.62
2022-07-31T09:37:19.897Z,24.52
2022-07-31T09:39:54.398Z,24.67
2022-07-31T09:42:25.560Z,24.86
2022-07-31T09:44:52.576Z,24.94
2022-07-31T09:47:38.250Z,25.13
2022-07-31T09:50:06.414Z,25.29
2022-07-31T09:52:34.018Z,25.28
2022-07-31T09:55:16.981Z,25.42
2022-07-31T09:57:55.979Z,25.52
2022-07-31T10:00:23.802Z,25.54
2022-07-31T10:02:52.953Z,25.59
2022-07-31T10:05:23.318Z,25.69
2022-07-31T10:07:50.473Z,25.67
2022-07-31T10:10:17.748Z,25.69
2022-07-31T10:12:49.074Z,25.74
2022-07-31T10:15:17.558Z,25.69
2022-07-31T10:17:47.539Z,25.59
2022-07-31T10:20:22.111Z,25.64
2022-07-31T10:22:56.048Z,25.68
2022-07-31T10:25:26.962Z,25.70
2022-07-31T10:27:57.379Z,25.68
2022-07-31T10:30:28.091Z,25.70
2022-07-31T10:32:56.687Z,25.48
2022-07-31T10:35:23.544Z,25.55
2022-07-31T10:38:30.340Z,25.57
2022-07-31T10:41:08.117Z,25.63
2022-07-31T10:43:57.762Z,25.49
2022-07-31T10:46:29.365Z,25.59
2022-07-31T10:48:57.679Z,25.58
2022-07-31T10:51:27.729Z,25.80
2022-07-31T10:54:06.174Z,25.89
2022-07-31T10:56:44.521Z,26.20
2022-07-31T10:59:12.967Z,26.27
2022-07-31T11:01:53.318Z,26.30
2022-07-31T11:04:32.513Z,26.39
2022-07-31T11:07:00.184Z,26.40
2022-07-31T11:09:29.182Z,26.46
2022-07-31T11:11:57.397Z,26.24
2022-07-31T11:14:39.708Z,26.20
2022-07-31T11:17:07.548Z,26.27
2022-07-31T11:19:43.015Z,26.31
2022-07-31T11:22:32.104Z,26.22
2022-07-31T11:25:04.091Z,26.04
2022-07-31T11:27:31.819Z,26.19
2022-07-31T11:30:13.001Z,26.18
2022-07-31T11:32:41.515Z,26.38
2022-07-31T11:35:14.145Z,26.48
2022-07-31T11:37:56.489Z,26.72
2022-07-31T11:40:27.859Z,26.97
2022-07-31T11:43:23.552Z,27.04
2022-07-31T11:45:48.310Z,27.09
2022-07-31T11:48:19.359Z,26.85
2022-07-31T11:50:47.522Z,26.80
2022-07-31T11:53:14.685Z,26.68
2022-07-31T11:55:49.938Z,26.69
2022-07-31T11:58:18.908Z,26.71
2022-07-31T12:00:50.555Z,26.66
2022-07-31T12:03:23.130Z,26.69
2022-07-31T12:05:55.240Z,26.64
2022-07-31T12:08:24.045Z,26.79
2022-07-31T12:10:55.526Z,26.67
2022-07-31T12:13:24.145Z,26.80
2022-07-31T12:15:59.584Z,26.87
2022-07-31T12:18:28.576Z,26.77
2022-07-31T12:20:56.975Z,26.80
2022-07-31T12:23:40.819Z,26.84
2022-07-31T12:26:09.505Z,26.78
2022-07-31T12:28:36.730Z,26.92
2022-07-31T12:31:04.058Z,26.95
2022-07-31T12:33:41.008Z,26.93
2022-07-31T12:36:16.229Z,27.03
2022-07-31T12:38:48.441Z,27.02
2022-07-31T12:41:16.623Z,27.07
2022-07-31T12:43:50.915Z,26.89
2022-07-31T12:46:35.048Z,26.90
2022-07-31T12:49:02.540Z,26.94
2022-07-31T12:51:45.463Z,26.99
2022-07-31T12:54:18.061Z,27.00
2022-07-31T12:56:47.559Z,27.11
2022-07-31T12:59:14.529Z,27.13
2022-07-31T13:01:45.493Z,26.99
2022-07-31T13:04:19.028Z,26.93
2022-07-31T13:06:49.049Z,26.99
2022-07-31T13:09:16.228Z,26.98
2022-07-31T13:11:46.645Z,26.90
2022-07-31T13:14:20.517Z,26.91
2022-07-31T13:16:48.266Z,26.98
2022-07-31T13:19:15.611Z,26.86
2022-07-31T13:21:49.478Z,26.96
2022-07-31T13:24:21.126Z,26.81
2022-07-31T13:26:49.264Z,26.64
2022-07-31T13:29:17.883Z,26.68
2022-07-31T13:31:44.882Z,26.65
2022-07-31T13:34:12.975Z,26.65
2022-07-31T13:36:43.001Z,26.61
2022-07-31T13:39:10.215Z,26.65
2022-07-31T13:41:39.704Z,26.60
2022-07-31T13:44:08.273Z,26.65
2022-07-31T13:46:35.417Z,26.66
2022-07-31T13:49:02.730Z,26.66
2022-07-31T13:51:30.100Z,26.81
2022-07-31T13:53:57.292Z,26.91
2022-07-31T13:56:39.145Z,27.06
2022-07-31T13:59:14.146Z,27.06
2022-07-31T14:02:13.437Z,27.21
2022-07-31T14:04:38.185Z,27.33
2022-07-31T14:07:06.855Z,27.53
2022-07-31T14:09:35.155Z,27.58
2022-07-31T14:12:04.459Z,27.68
2022-07-31T14:14:34.136Z,27.74
2022-07-31T14:17:01.541Z,27.88
2022-07-31T14:19:28.795Z,27.91
2022-07-31T14:21:57.841Z,28.09
2022-07-31T14:24:30.598Z,27.92
2022-07-31T14:26:57.726Z,27.96
2022-07-31T14:29:24.916Z,27.91
2022-07-31T14:31:53.039Z,27.85
2022-07-31T14:34:24.376Z,27.88
2022-07-31T14:37:03.300Z,28.08
2022-07-31T14:39:31.181Z,27.97
2022-07-31T14:42:01.214Z,27.87
2022-07-31T14:44:31.430Z,27.90
2022-07-31T14:47:00.032Z,27.90
2022-07-31T14:50:09.498Z,27.89
2022-07-31T14:52:23.146Z,27.79
2022-07-31T14:54:51.672Z,27.82
2022-07-31T14:57:22.277Z,27.66
2022-07-31T14:59:51.499Z,27.67
2022-07-31T15:02:22.509Z,27.69
2022-07-31T15:04:53.370Z,27.55
2022-07-31T15:07:41.180Z,27.34
2022-07-31T15:10:10.365Z,27.37
2022-07-31T15:12:42.478Z,27.53
2022-07-31T15:15:14.222Z,27.38
2022-07-31T15:17:44.200Z,27.51
2022-07-31T15:20:11.683Z,27.43
2022-07-31T15:22:38.587Z,27.26
2022-07-31T15:25:06.244Z,27.20
2022-07-31T15:27:33.233Z,27.17
2022-07-31T15:30:06.467Z,27.25
2022-07-31T15:32:39.219Z,27.39
2022-07-31T15:35:08.055Z,27.34
2022-07-31T15:37:39.286Z,27.23
2022-07-31T15:40:08.102Z,27.13
2022-07-31T15:42:40.818Z,27.17
2022-07-31T15:45:20.589Z,27.06
2022-07-31T15:47:48.213Z,27.07
2022-07-31T15:50:17.800Z,27.12
2022-07-31T15:52:44.963Z,27.11
2022-07-31T15:55:11.957Z,27.05
2022-07-31T15:57:39.555Z,27.02
2022-07-31T16:00:10.548Z,27.09
2022-07-31T16:02:37.747Z,26.98
2022-07-31T16:05:21.311Z,26.92
2022-07-31T16:08:29.170Z,26.84
2022-07-31T16:10:35.435Z,26.91
2022-07-31T16:13:03.486Z,26.93
2022-07-31T16:15:30.904Z,26.91
2022-07-31T16:17:58.118Z,26.95
2022-07-31T16:20:26.806Z,26.92
2022-07-31T16:22:56.484Z,26.90
2022-07-31T16:25:24.964Z,26.88
2022-07-31T16:27:52.271Z,26.88
2022-07-31T16:30:19.192Z,26.97
2022-07-31T16:32:46.367Z,26.99
2022-07-31T16:35:13.244Z,27.02
2022-07-31T16:37:51.234Z,27.20
2022-07-31T16:40:28.768Z,27.31
2022-07-31T16:42:56.460Z,27.41
2022-07-31T16:45:23.543Z,27.30
2022-07-31T16:47:51.523Z,27.36
2022-07-31T16:50:18.530Z,27.29
2022-07-31T16:52:45.356Z,27.24
2022-07-31T16:55:11.946Z,27.16
2022-07-31T16:57:38.533Z,27.20
2022-07-31T17:00:07.270Z,27.07
2022-07-31T17:02:34.300Z,26.88
2022-07-31T17:05:00.983Z,26.91
2022-07-31T17:07:28.618Z,26.95
2022-07-31T17:09:55.222Z,26.94
2022-07-31T17:12:21.856Z,26.86
2022-07-31T17:14:48.765Z,26.91
2022-07-31T17:17:16.980Z,27.07
2022-07-31T17:19:46.820Z,27.03
2022-07-31T17:22:17.798Z,26.95
2022-07-31T17:24:50.522Z,26.81
2022-07-31T17:27:17.969Z,26.88
2022-07-31T17:29:44.791Z,26.70
2022-07-31T17:32:11.756Z,26.81
2022-07-31T17:34:39.354Z,26.69
2022-07-31T17:37:07.406Z,26.72
2022-07-31T17:39:35.389Z,26.69
2022-07-31T17:42:02.159Z,26.60
2022-07-31T17:44:29.570Z,26.46
2022-07-31T17:46:57.871Z,26.34
2022-07-31T17:49:25.158Z,26.35
2022-07-31T17:52:07.990Z,26.29
2022-07-31T17:54:34.987Z,26.15
2022-07-31T17:57:02.249Z,26.18
2022-07-31T17:59:29.396Z,26.22
2022-07-31T18:02:06.887Z,26.11
2022-07-31T18:04:37.245Z,26.05
2022-07-31T18:07:05.497Z,26.07
2022-07-31T18:09:33.053Z,26.19
2022-07-31T18:12:00.280Z,25.94
2022-07-31T18:14:27.292Z,25.90
2022-07-31T18:16:58.754Z,25.78
2022-07-31T18:19:25.506Z,25.73
2022-07-31T18:21:52.826Z,25.73
2022-07-31T18:24:20.802Z,25.69
2022-07-31T18:26:47.798Z,25.89
2022-07-31T18:29:19.781Z,25.66
2022-07-31T18:31:47.004Z,25.41
2022-07-31T18:34:13.956Z,25.32
2022-07-31T18:36:40.811Z,25.21
2022-07-31T18:39:07.811Z,25.11
2022-07-31T18:41:34.553Z,24.99
2022-07-31T18:44:01.545Z,24.98
2022-07-31T18:46:28.272Z,25.00
2022-07-31T18:48:56.267Z,24.93
2022-07-31T18:51:25.114Z,24.88
2022-07-31T18:53:52.011Z,24.80
2022-07-31T18:56:21.793Z,24.78
2022-07-31T18:58:52.198Z,24.77
2022-07-31T19:01:19.118Z,24.72
2022-07-31T19:03:45.908Z,24.75
2022-07-31T19:06:12.995Z,24.74
2022-07-31T19:08:39.694Z,24.65
2022-07-31T19:11:06.485Z,24.43
2022-07-31T19:13:33.417Z,24.35
2022-07-31T19:16:00.225Z,24.36
2022-07-31T19:18:30.282Z,24.26
2022-07-31T19:21:23.206Z,24.22
2022-07-31T19:23:44.081Z,24.07
2022-07-31T19:26:10.917Z,23.98
2022-07-31T19:28:39.844Z,23.90
2022-07-31T19:31:06.823Z,23.84
2022-07-31T19:33:33.431Z,23.74
2022-07-31T19:36:02.660Z,23.72
2022-07-31T19:38:31.582Z,23.61
2022-07-31T19:40:58.537Z,23.47
2022-07-31T19:43:25.222Z,23.52
2022-07-31T19:45:59.816Z,23.43
2022-07-31T19:48:40.974Z,23.39
2022-07-31T19:51:08.154Z,23.37
2022-07-31T19:53:35.084Z,23.49
2022-07-31T19:56:05.731Z,23.43
2022-07-31T19:58:36.354Z,23.39
2022-07-31T20:01:05.094Z,23.42
2022-07-31T20:03:32.115Z,23.34
2022-07-31T20:05:58.910Z,23.30
2022-07-31T20:08:25.626Z,23.32
2022-07-31T20:10:52.449Z,23.21
2022-07-31T20:13:19.228Z,23.22
2022-07-31T20:15:52.563Z,23.14
2022-07-31T20:18:27.171Z,23.08
2022-07-31T20:20:59.148Z,23.10
2022-07-31T20:23:27.057Z,22.96
2022-07-31T20:25:53.887Z,22.97
2022-07-31T20:28:20.768Z,22.97
2022-07-31T20:30:47.407Z,22.89
2022-07-31T20:33:14.234Z,22.88
2022-07-31T20:35:48.383Z,22.82
2022-07-31T20:38:17.230Z,22.92
2022-07-31T20:40:52.972Z,22.83
2022-07-31T20:43:28.268Z,22.79
2022-07-31T20:45:59.280Z,22.68
2022-07-31T20:48:31.703Z,22.58
2022-07-31T20:50:59.698Z,22.48
2022-07-31T20:53:26.622Z,22.48
2022-07-31T20:55:53.342Z,22.46
2022-07-31T20:58:21.479Z,22.37
2022-07-31T21:00:49.438Z,22.34
2022-07-31T21:03:16.994Z,22.22
2022-07-31T21:05:44.489Z,22.22
2022-07-31T21:08:12.125Z,22.29
2022-07-31T21:10:39.935Z,22.23
2022-07-31T21:13:06.551Z,22.27
2022-07-31T21:15:41.987Z,22.21
2022-07-31T21:18:12.023Z,22.19
2022-07-31T21:20:52.045Z,22.24
2022-07-31T21:23:24.512Z,22.22
2022-07-31T21:25:52.512Z,22.22
2022-07-31T21:28:19.375Z,22.14
2022-07-31T21:30:46.932Z,22.16
2022-07-31T21:33:13.688Z,22.08
2022-07-31T21:35:40.900Z,22.05
2022-07-31T21:38:12.146Z,22.08
2022-07-31T21:40:39.997Z,21.99
2022-07-31T21:43:07.221Z,22.07
2022-07-31T21:45:49.712Z,21.87
2022-07-31T21:48:22.743Z,22.00
2022-07-31T21:50:49.394Z,21.81
2022-07-31T21:53:16.015Z,21.70
2022-07-31T21:55:42.799Z,21.62
2022-07-31T21:58:09.786Z,21.50
2022-07-31T22:00:36.988Z,21.63
2022-07-31T22:03:04.745Z,21.59
2022-07-31T22:05:50.853Z,21.63
2022-07-31T22:08:17.715Z,21.65
2022-07-31T22:10:44.666Z,21.67
2022-07-31T22:13:11.341Z,21.53
2022-07-31T22:15:55.387Z,21.62
2022-07-31T22:18:29.788Z,21.48
2022-07-31T22:20:57.525Z,21.56
2022-07-31T22:23:25.269Z,21.52
2022-07-31T22:25:51.981Z,21.53
2022-07-31T22:28:20.340Z,21.65
2022-07-31T22:30:47.377Z,21.59
2022-07-31T22:33:14.615Z,21.50
2022-07-31T22:35:41.306Z,21.56
2022-07-31T22:38:11.741Z,21.74
2022-07-31T22:40:38.637Z,21.49
2022-07-31T22:44:09.881Z,21.52
2022-07-31T22:45:53.650Z,21.49
2022-07-31T22:48:21.918Z,21.33
2022-07-31T22:50:49.335Z,21.17
2022-07-31T22:53:15.942Z,21.22
2022-07-31T22:55:42.591Z,21.21
2022-07-31T22:58:11.499Z,21.30
2022-07-31T23:00:38.518Z,21.07
2022-07-31T23:03:05.245Z,21.04
2022-07-31T23:06:02.759Z,21.08
2022-07-31T23:08:18.630Z,21.01
2022-07-31T23:10:45.263Z,20.97
2022-07-31T23:13:11.824Z,21.13
2022-07-31T23:15:38.441Z,21.13
2022-07-31T23:18:05.065Z,21.00
2022-07-31T23:20:31.951Z,20.84
2022-07-31T23:22:58.587Z,20.83
2022-07-31T23:25:25.203Z,20.92
2022-07-31T23:27:51.910Z,20.81
2022-07-31T23:30:18.564Z,20.77
2022-07-31T23:32:45.267Z,20.81
2022-07-31T23:35:11.955Z,20.93
2022-07-31T23:37:38.677Z,20.78
2022-07-31T23:40:06.159Z,20.83
2022-07-31T23:42:38.685Z,20.88
2022-07-31T23:45:11.332Z,20.81
2022-07-31T23:47:45.656Z,20.73
2022-07-31T23:50:13.870Z,20.75
2022-07-31T23:52:40.650Z,20.78
2022-07-31T23:55:07.765Z,20.68
2022-07-31T23:57:36.217Z,20.72
